createdAt,value
2018-02-19T00:00:23.342Z,2.20
2018-02-19T00:01:23.336Z,2.27
2018-02-19T00:02:23.323Z,2.17
2018-02-19T00:03:23.318Z,2.30
2018-02-19T00:04:23.300Z,2.22
2018-02-19T00:05:23.292Z,2.13
2018-02-19T00:06:23.295Z,2.26
2018-02-19T00:07:23.297Z,2.22
2018-02-19T00:08:23.259Z,2.26
2018-02-19T00:09:23.250Z,2.30
2018-02-19T00:10:23.240Z,2.17
2018-02-19T00:11:23.234Z,2.23
2018-02-19T00:12:23.244Z,2.26
2018-02-19T00:13:23.214Z,2.16
2018-02-19T00:14:23.204Z,2.13
2018-02-19T00:15:23.192Z,2.17
2018-02-19T00:16:23.179Z,2.20
2018-02-19T00:17:23.209Z,2.12
2018-02-19T00:18:23.176Z,2.19
2018-02-19T00:19:23.152Z,2.19
2018-02-19T00:20:23.142Z,2.16
2018-02-19T00:21:23.134Z,2.15
2018-02-19T00:22:23.123Z,2.15
2018-02-19T00:23:23.125Z,2.28
2018-02-19T00:24:23.112Z,2.33
2018-02-19T00:25:23.099Z,2.23
2018-02-19T00:26:23.089Z,2.28
2018-02-19T00:27:23.076Z,2.13
2018-02-19T00:28:23.063Z,2.17
2018-02-19T00:29:23.055Z,2.22
2018-02-19T00:30:23.043Z,2.16
2018-02-19T00:31:23.058Z,2.16
2018-02-19T00:32:23.045Z,2.22
2018-02-19T00:33:23.015Z,2.10
2018-02-19T00:34:23.008Z,2.15
2018-02-19T00:35:22.996Z,2.13
2018-02-19T00:36:22.987Z,2.27
2018-02-19T00:37:22.975Z,2.27
2018-02-19T00:38:22.981Z,2.34
2018-02-19T00:39:22.961Z,2.23
2018-02-19T00:40:22.944Z,2.22
2018-02-19T00:41:22.937Z,2.15
2018-02-19T00:42:22.930Z,2.15
2018-02-19T00:43:22.937Z,2.35
2018-02-19T00:44:22.925Z,2.26
2018-02-19T00:45:22.899Z,2.27
2018-02-19T00:46:22.888Z,2.19
2018-02-19T00:47:22.876Z,2.13
2018-02-19T00:48:22.880Z,2.19
2018-02-19T00:49:22.859Z,2.19
2018-02-19T00:50:22.853Z,2.13
2018-02-19T00:51:22.855Z,2.23
2018-02-19T00:52:22.828Z,2.33
2018-02-19T00:53:22.832Z,2.27
2018-02-19T00:54:22.808Z,2.15
2018-02-19T00:55:22.802Z,2.22
2018-02-19T00:56:22.789Z,2.22
2018-02-19T00:57:22.782Z,2.23
2018-02-19T00:58:22.774Z,2.27
2018-02-19T00:59:22.758Z,2.38
2018-02-19T01:00:22.755Z,2.26
2018-02-19T01:01:22.739Z,2.33
2018-02-19T01:02:22.728Z,2.38
2018-02-19T01:03:22.723Z,2.44
2018-02-19T01:04:22.710Z,2.26
2018-02-19T01:05:22.703Z,2.23
2018-02-19T01:06:22.708Z,2.31
2018-02-19T01:07:22.679Z,2.27
2018-02-19T01:08:22.699Z,2.37
2018-02-19T01:09:22.663Z,2.28
2018-02-19T01:10:22.653Z,2.40
2018-02-19T01:11:22.644Z,2.40
2018-02-19T01:12:22.630Z,2.44
2018-02-19T01:13:22.637Z,2.35
2018-02-19T01:14:22.616Z,2.37
2018-02-19T01:15:22.602Z,2.55
2018-02-19T01:16:29.794Z,2.41
2018-02-19T01:18:16.014Z,2.55
2018-02-19T01:19:15.965Z,2.28
2018-02-19T01:20:15.962Z,2.38
2018-02-19T01:21:15.950Z,2.38
2018-02-19T01:22:15.954Z,2.35
2018-02-19T01:23:15.930Z,2.34
2018-02-19T01:24:15.926Z,2.44
2018-02-19T01:25:15.911Z,2.46
2018-02-19T01:26:15.902Z,2.49
2018-02-19T01:27:15.889Z,2.51
2018-02-19T01:28:15.903Z,2.56
2018-02-19T01:29:15.870Z,2.53
2018-02-19T01:30:15.861Z,2.46
2018-02-19T01:31:15.849Z,2.45
2018-02-19T01:32:15.848Z,2.48
2018-02-19T01:33:15.881Z,2.48
2018-02-19T01:34:15.826Z,2.46
2018-02-19T01:35:15.819Z,2.38
2018-02-19T01:36:15.811Z,2.41
2018-02-19T01:37:15.787Z,2.52
2018-02-19T01:38:15.787Z,2.35
2018-02-19T01:39:15.785Z,2.41
2018-02-19T01:40:15.796Z,2.46
2018-02-19T01:41:15.772Z,2.55
2018-02-19T01:42:15.775Z,2.48
2018-02-19T01:43:15.732Z,2.35
2018-02-19T01:44:15.722Z,2.38
2018-02-19T01:45:15.745Z,2.37
2018-02-19T01:46:15.702Z,2.38
2018-02-19T01:47:15.698Z,2.48
2018-02-19T01:48:15.687Z,2.41
2018-02-19T01:49:15.684Z,2.51
2018-02-19T01:50:15.669Z,2.52
2018-02-19T01:51:15.665Z,2.46
2018-02-19T01:52:15.648Z,2.51
2018-02-19T01:53:15.649Z,2.51
2018-02-19T01:54:15.652Z,2.64
2018-02-19T01:55:15.627Z,2.61
2018-02-19T01:56:15.607Z,2.58
2018-02-19T01:57:15.597Z,2.51
2018-02-19T01:58:15.597Z,2.56
2018-02-19T01:59:15.600Z,2.67
2018-02-19T02:00:15.592Z,2.55
2018-02-19T02:01:15.562Z,2.44
2018-02-19T02:02:15.551Z,2.52
2018-02-19T02:03:15.569Z,2.64
2018-02-19T02:04:15.575Z,2.63
2018-02-19T02:05:15.528Z,2.49
2018-02-19T02:06:15.515Z,2.53
2018-02-19T02:07:15.510Z,2.58
2018-02-19T02:08:15.492Z,2.51
2018-02-19T02:09:15.500Z,2.56
2018-02-19T02:10:15.477Z,2.46
2018-02-19T02:11:15.533Z,2.55
2018-02-19T02:12:15.473Z,2.41
2018-02-19T02:13:15.494Z,2.45
2018-02-19T02:14:15.440Z,2.44
2018-02-19T02:15:15.447Z,2.56
2018-02-19T02:16:15.415Z,2.59
2018-02-19T02:17:15.406Z,2.61
2018-02-19T02:18:15.418Z,2.66
2018-02-19T02:19:15.414Z,2.64
2018-02-19T02:20:15.384Z,2.69
2018-02-19T02:21:15.419Z,2.56
2018-02-19T02:22:15.360Z,2.46
2018-02-19T02:23:15.357Z,2.46
2018-02-19T02:24:15.346Z,2.53
2018-02-19T02:25:15.333Z,2.48
2018-02-19T02:26:15.319Z,2.46
2018-02-19T02:27:15.315Z,2.56
2018-02-19T02:28:15.303Z,2.63
2018-02-19T02:29:15.292Z,2.61
2018-02-19T02:30:15.282Z,2.56
2018-02-19T02:31:15.274Z,2.45
2018-02-19T02:32:15.265Z,2.52
2018-02-19T02:33:15.285Z,2.46
2018-02-19T02:34:15.244Z,2.48
2018-02-19T02:35:15.232Z,2.51
2018-02-19T02:36:15.225Z,2.51
2018-02-19T02:37:15.232Z,2.49
2018-02-19T02:38:15.209Z,2.40
2018-02-19T02:39:15.196Z,2.45
2018-02-19T02:40:15.185Z,2.46
2018-02-19T02:41:15.235Z,2.38
2018-02-19T02:42:15.181Z,2.45
2018-02-19T02:43:15.179Z,2.46
2018-02-19T02:44:15.155Z,2.49
2018-02-19T02:45:15.138Z,2.51
2018-02-19T02:46:15.125Z,2.37
2018-02-19T02:47:15.117Z,2.37
2018-02-19T02:48:15.111Z,2.40
2018-02-19T02:49:15.105Z,2.53
2018-02-19T02:50:15.131Z,2.44
2018-02-19T02:51:15.082Z,2.44
2018-02-19T02:52:15.070Z,2.40
2018-02-19T02:53:15.082Z,2.46
2018-02-19T02:54:15.054Z,2.46
2018-02-19T02:55:15.093Z,2.45
2018-02-19T02:56:15.034Z,2.46
2018-02-19T02:57:15.050Z,2.56
2018-02-19T02:58:15.048Z,2.51
2018-02-19T02:59:15.026Z,2.61
2018-02-19T03:00:14.991Z,2.56
2018-02-19T03:01:15.002Z,2.55
2018-02-19T03:02:15.016Z,2.67
2018-02-19T03:03:14.965Z,2.51
2018-02-19T03:04:14.980Z,2.53
2018-02-19T03:05:14.940Z,2.55
2018-02-19T03:24:51.259Z,2.40
2018-02-19T03:25:51.184Z,2.44
2018-02-19T03:26:51.182Z,2.37
2018-02-19T03:27:51.172Z,2.41
2018-02-19T03:28:51.172Z,2.45
2018-02-19T03:29:51.146Z,2.40
2018-02-19T03:30:51.113Z,2.37
2018-02-19T03:31:51.099Z,2.40
2018-02-19T03:32:51.111Z,2.40
2018-02-19T03:33:53.050Z,2.41
2018-02-19T03:34:51.066Z,2.38
2018-02-19T03:35:51.052Z,2.51
2018-02-19T03:36:51.043Z,2.41
2018-02-19T03:37:51.042Z,2.55
2018-02-19T03:38:51.028Z,2.40
2018-02-19T03:39:51.045Z,2.37
2018-02-19T03:40:50.996Z,2.38
2018-02-19T03:41:51.043Z,2.41
2018-02-19T03:42:50.986Z,2.35
2018-02-19T03:43:50.963Z,2.37
2018-02-19T03:44:51.006Z,2.51
2018-02-19T03:45:50.974Z,2.41
2018-02-19T03:46:50.952Z,2.44
2018-02-19T03:47:50.930Z,2.52
2018-02-19T03:48:50.934Z,2.44
2018-02-19T03:49:50.908Z,2.41
2018-02-19T03:50:50.911Z,2.41
2018-02-19T03:51:50.927Z,2.38
2018-02-19T03:52:50.871Z,2.28
2018-02-19T03:53:50.862Z,2.26
2018-02-19T03:54:50.861Z,2.35
2018-02-19T03:55:50.843Z,2.28
2018-02-19T03:56:50.835Z,2.41
2018-02-19T03:57:50.842Z,2.48
2018-02-19T03:58:50.818Z,2.40
2018-02-19T03:59:50.815Z,2.52
2018-02-19T04:00:50.794Z,2.45
2018-02-19T04:01:50.782Z,2.51
2018-02-19T04:02:50.796Z,2.52
2018-02-19T04:03:50.761Z,2.37
2018-02-19T04:04:50.757Z,2.44
2018-02-19T04:05:50.743Z,2.56
2018-02-19T04:06:50.742Z,2.48
2018-02-19T04:07:50.773Z,2.51
2018-02-19T04:08:50.713Z,2.56
2018-02-19T04:09:50.719Z,2.45
2018-02-19T04:10:50.715Z,2.51
2018-02-19T04:11:50.720Z,2.48
2018-02-19T04:12:50.703Z,2.41
2018-02-19T04:13:50.664Z,2.49
2018-02-19T04:14:50.655Z,2.52
2018-02-19T04:15:50.645Z,2.51
2018-02-19T04:16:50.680Z,2.49
2018-02-19T04:17:50.640Z,2.46
2018-02-19T04:18:50.658Z,2.48
2018-02-19T04:19:50.617Z,2.52
2018-02-19T04:20:50.630Z,2.52
2018-02-19T04:21:50.590Z,2.53
2018-02-19T04:22:50.592Z,2.51
2018-02-19T04:23:50.603Z,2.46
2018-02-19T04:24:50.587Z,2.40
2018-02-19T04:25:50.547Z,2.51
2018-02-19T04:26:50.547Z,2.55
2018-02-19T04:27:50.561Z,2.55
2018-02-19T04:28:50.555Z,2.45
2018-02-19T04:29:50.548Z,2.40
2018-02-19T04:30:50.524Z,2.45
2018-02-19T04:31:50.503Z,2.55
2018-02-19T04:32:50.482Z,2.44
2018-02-19T04:33:50.479Z,2.41
2018-02-19T04:34:50.463Z,2.37
2018-02-19T04:35:50.477Z,2.41
2018-02-19T04:36:50.481Z,2.38
2018-02-19T04:37:50.440Z,2.49
2018-02-19T04:38:50.429Z,2.40
2018-02-19T04:39:50.446Z,2.45
2018-02-19T04:40:50.432Z,2.48
2018-02-19T04:41:50.394Z,2.35
2018-02-19T04:42:50.421Z,2.44
2018-02-19T04:43:50.410Z,2.38
2018-02-19T04:44:50.364Z,2.38
2018-02-19T04:45:50.356Z,2.44
2018-02-19T04:46:50.342Z,2.37
2018-02-19T04:47:50.337Z,2.35
2018-02-19T04:48:50.352Z,2.37
2018-02-19T04:49:50.345Z,2.37
2018-02-19T04:50:50.313Z,2.37
2018-02-19T04:51:50.329Z,2.28
2018-02-19T04:52:50.291Z,2.40
2018-02-19T04:53:50.285Z,2.40
2018-02-19T04:54:50.268Z,2.38
2018-02-19T04:55:50.261Z,2.40
2018-02-19T04:56:50.248Z,2.40
2018-02-19T04:57:50.239Z,2.40
2018-02-19T04:58:50.228Z,2.26
2018-02-19T04:59:50.250Z,2.26
2018-02-19T05:00:50.209Z,2.41
2018-02-19T05:01:50.206Z,2.40
2018-02-19T05:02:50.207Z,2.34
2018-02-19T05:03:50.175Z,2.33
2018-02-19T05:04:50.190Z,2.28
2018-02-19T05:05:50.169Z,2.38
2018-02-19T05:06:50.154Z,2.26
2018-02-19T05:07:50.146Z,2.35
2018-02-19T05:08:50.126Z,2.23
2018-02-19T05:09:50.116Z,2.26
2018-02-19T05:10:50.104Z,2.38
2018-02-19T05:11:50.097Z,2.19
2018-02-19T05:12:50.088Z,2.15
2018-02-19T05:13:50.088Z,2.19
2018-02-19T05:14:50.070Z,2.17
2018-02-19T05:15:50.065Z,2.17
2018-02-19T05:16:50.048Z,2.23
2018-02-19T05:17:50.045Z,2.23
2018-02-19T05:18:50.046Z,2.26
2018-02-19T05:19:50.020Z,2.26
2018-02-19T05:20:50.009Z,2.22
2018-02-19T05:21:50.003Z,2.23
2018-02-19T05:22:50.003Z,2.16
2018-02-19T05:23:50.000Z,2.27
2018-02-19T05:24:49.972Z,2.09
2018-02-19T05:25:49.957Z,2.27
2018-02-19T05:26:49.952Z,2.15
2018-02-19T05:27:49.955Z,2.17
2018-02-19T05:28:49.927Z,2.17
2018-02-19T05:29:49.918Z,2.20
2018-02-19T05:30:49.912Z,2.19
2018-02-19T05:31:49.902Z,2.26
2018-02-19T05:32:49.889Z,2.26
2018-02-19T05:33:49.880Z,2.16
2018-02-19T05:34:49.874Z,2.17
2018-02-19T05:35:49.861Z,2.26
2018-02-19T05:36:49.852Z,2.27
2018-02-19T05:37:49.839Z,2.12
2018-02-19T05:38:49.830Z,2.27
2018-02-19T05:39:49.821Z,2.17
2018-02-19T05:40:49.818Z,2.17
2018-02-19T05:41:49.806Z,2.23
2018-02-19T05:42:49.800Z,2.15
2018-02-19T05:43:49.780Z,2.12
2018-02-19T05:44:49.777Z,2.10
2018-02-19T05:45:49.762Z,2.20
2018-02-19T05:46:49.763Z,2.19
2018-02-19T05:47:49.795Z,2.22
2018-02-19T05:48:49.767Z,2.27
2018-02-19T05:49:49.726Z,2.17
2018-02-19T05:50:49.753Z,2.15
2018-02-19T05:51:49.732Z,2.12
2018-02-19T05:52:50.291Z,2.10
2018-02-19T05:53:51.081Z,2.22
2018-02-19T05:54:50.105Z,2.19
2018-02-19T05:55:50.366Z,2.09
2018-02-19T05:56:50.328Z,2.17
2018-02-19T05:57:50.176Z,2.15
2018-02-19T05:58:49.818Z,2.17
2018-02-19T05:59:49.655Z,2.15
2018-02-19T06:00:49.634Z,2.15
2018-02-19T06:01:49.634Z,2.13
2018-02-19T06:02:49.591Z,2.19
2018-02-19T06:03:49.749Z,2.16
2018-02-19T06:04:49.589Z,2.20
2018-02-19T06:05:49.584Z,2.20
2018-02-19T06:06:49.578Z,2.13
2018-02-19T06:07:58.939Z,2.02
2018-02-19T06:09:43.051Z,2.08
2018-02-19T06:10:42.958Z,2.04
2018-02-19T06:11:42.960Z,2.09
2018-02-19T06:12:43.022Z,2.12
2018-02-19T06:13:42.874Z,2.19
2018-02-19T06:14:42.865Z,2.17
2018-02-19T06:15:42.876Z,2.09
2018-02-19T06:16:42.847Z,2.26
2018-02-19T06:17:42.840Z,2.26
2018-02-19T06:18:42.826Z,2.17
2018-02-19T06:19:42.821Z,2.20
2018-02-19T06:20:42.809Z,2.16
2018-02-19T06:21:42.834Z,2.15
2018-02-19T06:22:42.804Z,2.27
2018-02-19T06:23:42.790Z,2.22
2018-02-19T06:24:42.825Z,2.27
2018-02-19T06:25:42.765Z,2.41
2018-02-19T06:26:42.754Z,2.37
2018-02-19T06:27:42.745Z,2.31
2018-02-19T06:28:51.550Z,2.20
2018-02-19T06:30:45.482Z,2.23
2018-02-19T06:31:44.992Z,2.30
2018-02-19T06:33:29.602Z,2.15
2018-02-19T06:34:29.498Z,2.20
2018-02-19T06:35:29.483Z,2.17
2018-02-19T06:36:29.618Z,2.20
2018-02-19T06:37:29.438Z,2.23
2018-02-19T06:38:29.443Z,2.15
2018-02-19T06:39:29.414Z,2.13
2018-02-19T06:40:29.517Z,2.09
2018-02-19T06:41:29.403Z,2.02
2018-02-19T06:42:29.390Z,1.99
2018-02-19T06:43:29.378Z,1.99
2018-02-19T06:44:29.440Z,1.98
2018-02-19T06:45:29.371Z,2.13
2018-02-19T06:46:29.348Z,2.12
2018-02-19T06:47:29.340Z,2.04
2018-02-19T06:48:29.327Z,2.13
2018-02-19T06:49:29.325Z,2.13
2018-02-19T06:50:29.309Z,2.08
2018-02-19T06:51:29.327Z,2.02
2018-02-19T06:52:29.352Z,2.02
2018-02-19T06:53:29.323Z,2.16
2018-02-19T06:54:29.270Z,2.01
2018-02-19T06:55:29.332Z,1.97
2018-02-19T06:56:29.356Z,2.01
2018-02-19T06:57:29.246Z,1.94
2018-02-19T06:58:29.259Z,2.01
2018-02-19T06:59:29.219Z,2.06
2018-02-19T07:00:29.210Z,1.99
2018-02-19T07:01:29.207Z,2.08
2018-02-19T07:02:29.191Z,2.10
2018-02-19T07:03:29.192Z,1.99
2018-02-19T07:04:29.173Z,2.09
2018-02-19T07:05:29.167Z,2.09
2018-02-19T07:06:29.163Z,2.01
2018-02-19T07:07:29.153Z,2.09
2018-02-19T07:08:29.127Z,1.99
2018-02-19T07:09:29.127Z,2.08
2018-02-19T07:10:29.108Z,2.01
2018-02-19T07:11:29.122Z,1.99
2018-02-19T07:12:29.121Z,1.78
2018-02-19T07:13:29.111Z,1.85
2018-02-19T07:14:29.068Z,1.85
2018-02-19T07:15:29.081Z,1.90
2018-02-19T07:16:29.051Z,1.98
2018-02-19T07:17:29.083Z,1.82
2018-02-19T07:18:29.025Z,1.82
2018-02-19T07:19:29.075Z,1.85
2018-02-19T07:20:29.003Z,1.94
